Time;durP1;ratioP1;P1;durP2;ratioP2;P2;SDS_P1;SDS_P2;PMS_P1;PMS_P2;Temp;Humidity;BMP_temperature;BMP_pressure;BME280_temperature;BME280_humidity;BME280_pressure;Samples;Min_cycle;Max_cycle;Signal;HPM_P1;HPM_P2
2022/10/03 00:00:02;;;;;;;;;72.50;58.00;;;;;13.86;84.85;102042.53;5076934;27;45338;-53
2022/10/03 00:03:06;;;;;;;;;71.50;56.50;;;;;13.84;85.24;102039.94;5097997;27;45347;-63
2022/10/03 00:05:53;;;;;;;;;75.00;55.75;;;;;13.84;85.24;102041.75;5048730;27;45419;-61
2022/10/03 00:08:34;;;;;;;;;65.75;54.00;;;;;13.83;84.95;102042.69;5076723;28;45387;-59
2022/10/03 00:11:31;;;;;;;;;66.00;53.25;;;;;13.82;84.93;102049.84;5075416;28;45361;-60
2022/10/03 00:14:10;;;;;;;;;61.25;52.25;;;;;13.82;85.57;102046.31;5077039;27;45487;-64
2022/10/03 00:16:57;;;;;;;;;66.50;52.00;;;;;13.81;85.68;102050.78;5099647;27;45335;-60
2022/10/03 00:19:28;;;;;;;;;64.00;50.25;;;;;13.79;85.17;102049.09;5076067;27;46257;-59
2022/10/03 00:22:00;;;;;;;;;58.50;46.25;;;;;13.79;85.16;102052.63;5074878;27;45468;-63
2022/10/03 00:24:28;;;;;;;;;61.00;49.25;;;;;13.77;85.58;102050.97;5076024;27;45415;-61
2022/10/03 00:27:12;;;;;;;;;57.75;48.00;;;;;13.75;85.28;102059.06;5076827;27;45599;-53
2022/10/03 00:29:38;;;;;;;;;62.50;47.75;;;;;13.75;84.86;102050.19;5074818;28;46020;-54
2022/10/03 00:32:35;;;;;;;;;56.25;46.00;;;;;13.72;85.62;102047.66;5074293;28;45179;-56
2022/10/03 00:35:22;;;;;;;;;51.75;42.25;;;;;13.72;85.60;102047.66;5017243;28;45518;-58
2022/10/03 00:38:21;;;;;;;;;52.25;40.25;;;;;13.71;86.02;102053.94;5091483;27;46105;-61
2022/10/03 00:40:49;;;;;;;;;42.75;38.25;;;;;13.70;85.16;102049.53;5074547;27;45383;-54
2022/10/03 00:43:43;;;;;;;;;40.75;35.25;;;;;13.71;85.22;102056.63;5076277;27;45388;-59
2022/10/03 00:46:14;;;;;;;;;44.50;38.25;;;;;13.69;85.13;102063.84;5075234;27;45412;-59
2022/10/03 00:49:04;;;;;;;;;37.00;35.00;;;;;13.69;85.31;102061.19;5075877;28;45337;-57
2022/10/03 00:51:55;;;;;;;;;39.75;34.50;;;;;13.68;85.61;102054.09;5069415;27;45483;-59
2022/10/03 00:54:36;;;;;;;;;43.75;37.25;;;;;13.67;85.40;102057.69;5091672;27;45191;-56
2022/10/03 00:57:04;;;;;;;;;36.50;31.50;;;;;13.67;85.94;102055.00;5092441;27;45425;-59
2022/10/03 00:59:47;;;;;;;;;30.67;28.33;;;;;13.66;85.74;102047.94;5072539;28;45363;-60
2022/10/03 01:02:31;;;;;;;;;38.75;35.00;;;;;13.67;85.91;102050.56;5071676;27;46123;-60
2022/10/03 01:05:18;;;;;;;;;35.00;31.75;;;;;13.68;85.96;102051.44;5087212;27;45612;-58
2022/10/03 01:08:14;;;;;;;;;32.25;30.50;;;;;13.68;85.61;102051.44;5076682;27;45448;-57
2022/10/03 01:11:20;;;;;;;;;27.67;25.67;;;;;13.67;85.94;102055.91;5091292;27;45469;-55
2022/10/03 01:14:07;;;;;;;;;28.75;26.25;;;;;13.67;85.88;102057.69;5074008;28;46232;-58
2022/10/03 01:16:36;;;;;;;;;37.50;32.25;;;;;13.66;86.15;102054.13;5073820;28;45412;-60
2022/10/03 01:19:25;;;;;;;;;24.75;22.75;;;;;13.64;86.18;102047.13;5090001;27;45475;-61
2022/10/03 01:22:05;;;;;;;;;32.33;25.33;;;;;13.63;85.32;102061.44;5074099;27;45322;-58
2022/10/03 01:24:51;;;;;;;;;32.25;26.50;;;;;13.63;85.60;102064.13;5079433;27;45617;-61
2022/10/03 01:30:37;;;;;;;;;35.75;30.75;;;;;13.60;85.92;102057.09;5075017;28;45267;-59
2022/10/03 01:33:10;;;;;;;;;38.50;28.50;;;;;13.54;85.79;102065.38;5073357;27;45478;-56
2022/10/03 01:36:09;;;;;;;;;36.50;30.25;;;;;13.45;85.78;102056.00;5073699;27;45528;-54
2022/10/03 01:38:40;;;;;;;;;36.00;30.00;;;;;13.50;86.00;102064.66;5074894;27;45259;-53
2022/10/03 01:41:19;;;;;;;;;36.00;31.00;;;;;13.47;85.83;102054.13;5079860;27;45202;-56
2022/10/03 01:43:55;;;;;;;;;34.50;32.75;;;;;13.49;85.97;102048.69;5099956;27;45463;-54
2022/10/03 01:46:37;;;;;;;;;22.75;21.75;;;;;13.45;86.33;102056.00;5077223;27;45428;-55
2022/10/03 01:49:31;;;;;;;;;33.50;31.25;;;;;13.45;85.97;102056.00;5078120;27;45441;-59
2022/10/03 01:52:09;;;;;;;;;28.75;24.50;;;;;13.41;86.51;102048.16;5077805;28;45248;-60
2022/10/03 01:54:41;;;;;;;;;28.75;26.25;;;;;13.41;86.58;102043.72;5078546;27;45756;-59
2022/10/03 01:57:07;;;;;;;;;29.67;27.00;;;;;13.43;86.58;102051.66;5074969;27;46636;-60
2022/10/03 01:59:53;;;;;;;;;29.00;25.00;;;;;13.43;86.49;102044.50;5077397;27;45459;-56
2022/10/03 02:02:38;;;;;;;;;28.67;22.00;;;;;13.47;85.92;102043.44;5076266;27;46703;-62
2022/10/03 02:05:27;;;;;;;;;25.00;24.25;;;;;13.54;85.63;102047.56;5076899;28;45167;-52
2022/10/03 02:08:10;;;;;;;;;30.25;24.75;;;;;13.55;85.96;102041.28;5058450;28;45389;-56
2022/10/03 02:11:01;;;;;;;;;31.25;25.75;;;;;13.62;85.05;102046.34;5072732;28;45343;-55
2022/10/03 02:13:54;;;;;;;;;36.25;31.50;;;;;13.61;85.15;102034.78;5092580;27;45524;-63
2022/10/03 02:16:28;;;;;;;;;50.00;37.50;;;;;13.59;85.43;102042.00;5075903;27;45350;-59
2022/10/03 02:19:14;;;;;;;;;41.75;36.50;;;;;13.51;85.21;102034.31;5076353;28;45464;-61
2022/10/03 02:21:54;;;;;;;;;46.00;37.25;;;;;13.54;85.25;102039.56;5078939;28;45300;-58
2022/10/03 02:24:45;;;;;;;;;39.75;36.25;;;;;13.56;85.00;102040.34;5093393;27;45368;-64
2022/10/03 02:27:29;;;;;;;;;36.25;34.50;;;;;13.57;85.39;102039.41;5083242;27;45377;-60
2022/10/03 02:30:31;;;;;;;;;48.25;35.25;;;;;13.59;84.90;102047.34;5076466;28;45214;-59
2022/10/03 02:32:57;;;;;;;;;38.00;37.00;;;;;13.61;84.57;102033.91;5049449;27;45474;-60
2022/10/03 02:35:57;;;;;;;;;35.00;34.50;;;;;13.57;84.93;102042.09;5076732;27;45582;-61
2022/10/03 02:38:38;;;;;;;;;35.75;34.50;;;;;13.58;85.15;102038.47;5053535;27;45253;-57
2022/10/03 02:41:12;;;;;;;;;46.75;40.75;;;;;13.56;84.63;102034.13;5092832;27;46167;-61
2022/10/03 02:44:02;;;;;;;;;36.00;34.50;;;;;13.58;84.39;102038.47;5084618;27;45339;-58
2022/10/03 02:46:58;;;;;;;;;50.50;37.00;;;;;13.61;84.95;102044.59;5058075;28;45313;-53
2022/10/03 02:49:30;;;;;;;;;33.75;32.25;;;;;13.58;84.81;102034.94;5064777;28;45665;-60
2022/10/03 02:52:09;;;;;;;;;39.50;34.50;;;;;13.58;85.12;102051.84;5056766;28;46210;-59
2022/10/03 02:55:13;;;;;;;;;36.00;31.00;;;;;13.60;85.04;102041.06;5063192;28;45415;-59
2022/10/03 02:58:17;;;;;;;;;32.50;25.75;;;;;13.60;84.74;102042.88;5078196;27;45393;-57
2022/10/03 03:01:20;;;;;;;;;31.50;29.00;;;;;13.56;84.81;102035.00;5080134;27;45469;-60
2022/10/03 03:03:59;;;;;;;;;29.75;26.00;;;;;13.58;84.65;102041.16;5074172;28;45283;-59
2022/10/03 03:07:04;;;;;;;;;22.00;18.50;;;;;13.45;84.99;102012.38;5078012;27;45355;-60
2022/10/03 03:09:48;;;;;;;;;22.00;22.00;;;;;13.64;85.05;102041.78;5063047;28;45426;-54
2022/10/03 03:12:26;;;;;;;;;18.67;15.67;;;;;13.63;84.87;102035.56;5077202;27;45773;-61
2022/10/03 03:15:08;;;;;;;;;15.67;14.67;;;;;13.58;85.11;102030.44;5064449;27;45491;-63
2022/10/03 03:17:43;;;;;;;;;21.00;19.00;;;;;13.68;85.00;102036.25;5090849;27;45598;-61
2022/10/03 03:20:29;;;;;;;;;15.33;14.00;;;;;13.67;84.90;102039.88;5076611;27;45403;-58
2022/10/03 03:23:13;;;;;;;;;22.00;19.00;;;;;13.67;84.98;102036.28;5093676;27;45406;-64
2022/10/03 03:25:41;;;;;;;;;17.00;12.67;;;;;13.71;84.45;102037.91;5075390;27;46253;-57
2022/10/03 03:28:26;;;;;;;;;20.67;16.33;;;;;13.69;84.49;102040.66;5073402;27;45767;-62
2022/10/03 03:31:07;;;;;;;;;25.00;17.00;;;;;13.67;84.94;102036.28;5075161;28;45484;-59
2022/10/03 03:33:41;;;;;;;;;23.00;19.33;;;;;13.58;84.78;102030.44;5090667;27;45664;-57
2022/10/03 03:36:35;;;;;;;;;13.00;11.67;;;;;13.68;85.16;102036.25;5077362;28;45338;-58
2022/10/03 03:39:35;;;;;;;;;21.00;20.00;;;;;13.65;85.15;102046.19;5072661;27;45398;-60
2022/10/03 03:42:22;;;;;;;;;17.67;17.67;;;;;13.69;84.92;102037.97;5075934;28;45501;-62
2022/10/03 03:45:12;;;;;;;;;16.67;16.00;;;;;13.72;84.12;102032.50;5075826;28;45416;-62
2022/10/03 03:47:49;;;;;;;;;25.33;18.67;;;;;13.76;83.78;102038.56;5074775;28;45443;-60
2022/10/03 03:50:32;;;;;;;;;16.00;16.00;;;;;13.76;84.41;102041.22;5074755;27;45497;-53
2022/10/03 03:53:00;;;;;;;;;17.00;17.00;;;;;13.70;84.45;102045.06;5074885;27;45681;-56
2022/10/03 03:55:48;;;;;;;;;22.00;22.00;;;;;13.68;84.78;102035.38;5075179;27;45883;-59
2022/10/03 03:58:32;;;;;;;;;19.00;17.00;;;;;13.64;84.33;102039.13;5074964;27;45554;-59
2022/10/03 04:01:04;;;;;;;;;15.00;15.00;;;;;13.63;84.38;102045.41;5076531;27;45389;-54
2022/10/03 04:03:38;;;;;;;;;13.67;12.67;;;;;13.52;84.51;102040.53;5076783;27;45328;-57
2022/10/03 04:06:04;;;;;;;;;15.33;12.33;;;;;13.48;84.84;102050.50;5093149;27;45371;-52
2022/10/03 04:09:02;;;;;;;;;9.67;9.00;;;;;13.38;84.56;102027.78;5077068;27;45538;-57
2022/10/03 04:11:49;;;;;;;;;13.67;8.67;;;;;13.38;85.00;102040.28;5077024;27;45389;-52
2022/10/03 04:14:35;;;;;;;;;17.00;12.33;;;;;13.36;84.92;102040.38;5075932;28;45381;-58
2022/10/03 04:20:26;;;;;;;;;15.33;12.67;;;;;13.36;85.46;102035.03;5076808;28;45361;-60
2022/10/03 04:23:09;;;;;;;;;15.33;13.67;;;;;13.32;85.95;102037.91;5075539;28;45251;-62
2022/10/03 04:26:03;;;;;;;;;16.00;14.67;;;;;13.24;85.89;102039.09;5077102;27;45406;-61
2022/10/03 04:28:54;;;;;;;;;16.00;10.00;;;;;13.22;85.80;102040.97;5076699;27;45359;-61
2022/10/03 04:31:35;;;;;;;;;14.00;14.00;;;;;13.23;86.21;102036.50;5077580;27;46095;-54
2022/10/03 04:34:27;;;;;;;;;21.33;15.67;;;;;13.25;85.91;102045.31;5076564;27;45343;-52
2022/10/03 04:37:08;;;;;;;;;18.33;15.67;;;;;13.26;85.64;102041.69;5075775;28;45543;-57
2022/10/03 04:40:04;;;;;;;;;17.33;16.67;;;;;13.24;86.12;102036.44;5077021;27;45298;-62
2022/10/03 04:43:02;;;;;;;;;19.33;16.00;;;;;13.22;86.86;102037.44;5076792;28;46310;-59
2022/10/03 04:45:43;;;;;;;;;19.00;16.33;;;;;13.21;86.83;102047.25;5077095;28;45481;-61
2022/10/03 04:48:17;;;;;;;;;20.67;18.33;;;;;13.24;86.87;102047.13;5076691;27;45250;-61
2022/10/03 04:51:06;;;;;;;;;22.67;19.33;;;;;13.26;86.26;102039.03;5077526;27;45294;-58
2022/10/03 04:53:57;;;;;;;;;21.00;20.00;;;;;13.29;86.50;102044.25;5076998;28;46123;-57
2022/10/03 04:56:25;;;;;;;;;21.67;21.00;;;;;13.32;86.25;102045.94;5077534;27;45247;-62
2022/10/03 04:59:00;;;;;;;;;21.33;21.33;;;;;13.31;86.35;102047.72;5075708;28;45348;-59
2022/10/03 05:01:48;;;;;;;;;21.33;16.00;;;;;13.31;86.64;102058.41;5077046;28;45444;-56
2022/10/03 05:04:28;;;;;;;;;22.00;20.33;;;;;13.30;87.24;102054.00;5076656;27;46066;-58
2022/10/03 05:07:13;;;;;;;;;21.00;21.00;;;;;13.32;86.64;102054.81;5092357;27;45357;-59
2022/10/03 05:09:49;;;;;;;;;17.00;16.00;;;;;13.36;86.12;102051.06;5076385;27;45239;-59
2022/10/03 05:12:53;;;;;;;;;25.67;17.00;;;;;13.35;86.00;102054.66;5076007;27;45456;-61
2022/10/03 05:15:28;;;;;;;;;20.00;16.00;;;;;13.28;85.60;102039.81;5077429;27;45330;-60
2022/10/03 05:18:16;;;;;;;;;20.00;18.50;;;;;13.33;86.36;102050.34;5095883;27;45266;-59
2022/10/03 05:21:14;;;;;;;;;17.33;14.33;;;;;13.36;86.18;102050.19;5079715;27;45506;-59
2022/10/03 05:24:09;;;;;;;;;16.67;16.67;;;;;13.36;85.79;102048.38;5080303;28;45328;-55
2022/10/03 05:26:53;;;;;;;;;18.00;16.67;;;;;13.36;85.61;102056.41;5095218;27;45477;-57
2022/10/03 05:29:18;;;;;;;;;22.33;15.00;;;;;13.37;86.32;102052.78;5079583;27;45424;-55
2022/10/03 05:32:11;;;;;;;;;16.33;15.00;;;;;13.38;85.84;102051.84;5078476;28;45440;-56
2022/10/03 05:34:40;;;;;;;;;19.33;18.00;;;;;13.42;85.81;102061.50;5079725;27;45431;-57
2022/10/03 05:37:38;;;;;;;;;20.00;18.33;;;;;13.44;86.38;102062.28;5079086;27;46025;-53
2022/10/03 05:40:06;;;;;;;;;17.00;15.67;;;;;13.46;86.34;102063.06;5094990;27;45330;-53
2022/10/03 05:42:57;;;;;;;;;14.00;11.00;;;;;13.45;85.59;102073.84;5079623;28;45335;-64
2022/10/03 05:45:34;;;;;;;;;17.33;15.67;;;;;13.45;85.24;102072.03;5079689;27;45359;-59
2022/10/03 05:48:11;;;;;;;;;14.00;12.67;;;;;13.46;85.22;102070.22;5077456;28;45315;-55
2022/10/03 05:51:07;;;;;;;;;14.00;12.00;;;;;13.48;85.34;102074.56;5079000;27;45441;-57
2022/10/03 05:54:11;;;;;;;;;16.33;15.67;;;;;13.48;85.02;102071.03;5079317;27;45458;-54
2022/10/03 05:57:02;;;;;;;;;21.33;15.67;;;;;13.47;85.26;102058.59;5063148;27;45659;-55
2022/10/03 05:59:42;;;;;;;;;16.00;15.67;;;;;13.49;84.85;102057.59;5079130;27;45346;-56
2022/10/03 06:02:31;;;;;;;;;14.67;14.67;;;;;13.45;84.65;102056.00;5078734;27;45356;-57
2022/10/03 06:05:08;;;;;;;;;15.67;14.33;;;;;13.40;84.21;102052.66;5079211;27;45411;-53
2022/10/03 06:07:46;;;;;;;;;19.00;11.33;;;;;13.38;84.28;102037.63;5079373;27;45404;-59
2022/10/03 06:10:36;;;;;;;;;17.33;14.33;;;;;13.33;83.83;102048.53;5078998;27;46444;-51
2022/10/03 06:13:20;;;;;;;;;14.33;10.33;;;;;13.30;84.06;102040.66;5057208;28;45473;-53
2022/10/03 06:15:55;;;;;;;;;10.67;9.67;;;;;13.28;83.56;102043.41;5058364;28;45192;-50
2022/10/03 06:18:48;;;;;;;;;13.00;10.67;;;;;13.26;83.37;102044.38;5058977;28;45565;-53
2022/10/03 06:21:41;;;;;;;;;12.67;10.33;;;;;13.25;83.52;102061.34;5058488;28;45478;-48
2022/10/03 06:24:34;;;;;;;;;13.67;13.67;;;;;13.19;83.56;102058.97;5058275;28;45315;-52
2022/10/03 06:27:31;;;;;;;;;13.00;13.00;;;;;13.16;84.02;102059.94;5058013;28;45219;-55
2022/10/03 06:30:15;;;;;;;;;10.67;8.67;;;;;13.13;84.03;102061.84;5058630;28;45607;-57
2022/10/03 06:33:04;;;;;;;;;11.00;11.00;;;;;13.14;83.94;102064.44;5058268;28;45383;-54
2022/10/03 06:36:01;;;;;;;;;17.67;16.00;;;;;13.15;83.89;102062.63;5058134;28;45441;-59
2022/10/03 06:38:51;;;;;;;;;16.67;14.33;;;;;13.18;83.60;102060.75;5058607;28;45383;-55
2022/10/03 06:41:42;;;;;;;;;14.33;12.67;;;;;13.16;83.44;102061.72;5058466;28;45454;-57
2022/10/03 06:44:17;;;;;;;;;14.00;13.67;;;;;13.16;82.90;102069.75;5073692;28;46826;-57
2022/10/03 06:46:51;;;;;;;;;12.67;10.67;;;;;13.13;82.44;102077.88;5058188;28;45322;-55
2022/10/03 06:49:54;;;;;;;;;13.00;10.33;;;;;13.11;82.39;102077.06;5058078;28;45371;-52
2022/10/03 06:52:44;;;;;;;;;14.33;11.33;;;;;13.13;82.37;102073.41;5058633;28;45248;-55
2022/10/03 06:55:31;;;;;;;;;27.33;22.67;;;;;13.04;81.28;102075.63;5058525;28;45421;-49
2022/10/03 06:58:26;;;;;;;;;9.67;9.00;;;;;12.94;82.22;102084.00;5058104;28;45555;-54
2022/10/03 07:01:01;;;;;;;;;12.33;12.33;;;;;12.94;82.29;102092.03;5073890;27;45351;-56
2022/10/03 07:03:45;;;;;;;;;13.67;9.67;;;;;12.91;82.27;102101.97;5073681;28;45404;-53
2022/10/03 07:06:13;;;;;;;;;13.33;12.33;;;;;12.93;81.75;102105.44;5058065;28;46420;-53
2022/10/03 07:09:03;;;;;;;;;9.00;9.00;;;;;12.90;80.95;102101.09;5058018;28;45347;-53
2022/10/03 07:11:47;;;;;;;;;16.33;13.33;;;;;12.93;81.91;102106.31;5067015;28;45309;-60
2022/10/03 07:14:54;;;;;;;;;9.67;9.00;;;;;12.96;81.11;102103.50;5077067;28;45663;-54
2022/10/03 07:17:55;;;;;;;;;9.00;8.00;;;;;12.97;80.85;102097.22;5077938;28;45349;-50
2022/10/03 07:20:48;;;;;;;;;10.67;9.33;;;;;13.06;81.13;102105.78;5078843;27;45184;-54
2022/10/03 07:23:38;;;;;;;;;12.33;10.33;;;;;13.03;80.75;102105.94;5078751;28;45346;-59
2022/10/03 07:26:47;;;;;;;;;12.33;8.33;;;;;13.05;80.98;102099.59;5078428;27;45511;-52
2022/10/03 07:29:30;;;;;;;;;9.67;8.00;;;;;13.05;80.83;102098.72;5076469;27;45422;-60
2022/10/03 07:32:15;;;;;;;;;15.00;13.00;;;;;13.08;80.96;102098.56;5077608;27;45456;-55
2022/10/03 07:35:08;;;;;;;;;9.67;9.67;;;;;13.16;81.21;102117.84;5078113;27;45373;-56
2022/10/03 07:41:20;;;;;;;;;11.33;9.00;;;;;13.28;80.13;102106.63;5077309;28;45248;-57
2022/10/03 07:44:06;;;;;;;;;10.67;10.00;;;;;13.32;79.62;102102.03;5077659;27;45392;-59
2022/10/03 07:47:09;;;;;;;;;10.33;7.67;;;;;13.38;79.96;102102.63;5076684;28;45383;-55
2022/10/03 07:49:53;;;;;;;;;10.00;10.00;;;;;13.44;79.72;102110.38;5077668;28;45498;-52
2022/10/03 07:52:37;;;;;;;;;13.33;13.33;;;;;13.47;79.71;102118.25;5075707;28;45334;-54
2022/10/03 07:55:27;;;;;;;;;10.67;10.00;;;;;13.54;79.90;102129.53;5077380;27;45227;-55
2022/10/03 07:58:25;;;;;;;;;11.67;9.67;;;;;13.54;79.55;102122.41;5077387;28;46134;-53
2022/10/03 08:01:03;;;;;;;;;12.00;10.33;;;;;13.53;79.08;102123.31;5077417;28;45218;-57
2022/10/03 08:04:00;;;;;;;;;12.00;12.00;;;;;13.52;78.95;102126.06;5092894;27;45500;-60
2022/10/03 08:06:42;;;;;;;;;11.00;11.00;;;;;13.53;79.07;102128.66;5077656;28;45391;-62
2022/10/03 08:09:32;;;;;;;;;11.33;9.33;;;;;13.54;78.82;102125.09;5093474;27;45289;-63
2022/10/03 08:12:21;;;;;;;;;13.33;10.67;;;;;13.58;78.53;102128.50;5078651;28;45364;-51
2022/10/03 08:14:57;;;;;;;;;12.67;12.67;;;;;13.71;78.94;102131.50;5068988;28;46104;-55
2022/10/03 08:18:00;;;;;;;;;10.67;10.00;;;;;13.73;78.44;102119.78;5077230;27;45354;-59
2022/10/03 08:20:51;;;;;;;;;20.33;18.33;;;;;13.77;78.63;102129.38;5077106;28;45341;-50
2022/10/03 08:23:26;;;;;;;;;11.33;11.33;;;;;13.87;77.94;102128.03;5092643;27;45510;-50
2022/10/03 08:26:39;;;;;;;;;12.67;11.00;;;;;13.92;77.35;102124.28;5076526;27;46724;-55
2022/10/03 08:29:22;;;;;;;;;12.33;12.33;;;;;13.93;77.23;102121.53;5049454;27;45233;-52
2022/10/03 08:32:12;;;;;;;;;15.67;14.00;;;;;13.97;76.63;102128.50;5075715;28;45338;-59
2022/10/03 08:35:19;;;;;;;;;16.67;13.33;;;;;14.04;77.08;102124.59;5077267;27;45568;-62
2022/10/03 08:37:48;;;;;;;;;16.00;10.67;;;;;14.14;76.67;102125.03;5076931;27;45401;-54
2022/10/03 08:40:19;;;;;;;;;12.33;10.67;;;;;14.21;77.34;102121.16;5077013;27;45215;-56
2022/10/03 08:43:03;;;;;;;;;37.33;31.67;;;;;14.27;76.35;102119.97;5076309;27;45475;-60
2022/10/03 08:45:53;;;;;;;;;11.67;11.67;;;;;14.30;75.98;102117.16;5076966;28;45317;-57
2022/10/03 08:48:57;;;;;;;;;17.33;14.67;;;;;14.38;75.93;102120.34;5076297;27;47167;-61
2022/10/03 08:51:41;;;;;;;;;22.33;17.67;;;;;14.42;75.07;102113.91;5074600;28;45286;-59
2022/10/03 08:54:36;;;;;;;;;17.00;12.33;;;;;14.35;74.55;102107.13;5076809;27;45288;-62
2022/10/03 08:57:27;;;;;;;;;19.33;16.00;;;;;14.32;75.24;102117.94;5052528;27;45598;-55
2022/10/03 08:59:58;;;;;;;;;15.33;11.33;;;;;14.30;74.84;102118.03;5076399;27;47034;-60
2022/10/03 09:03:01;;;;;;;;;16.00;15.67;;;;;14.31;74.97;102117.06;5077092;27;45179;-61
2022/10/03 09:05:45;;;;;;;;;15.00;10.33;;;;;14.32;74.58;102112.59;5075921;28;45234;-56
2022/10/03 09:08:32;;;;;;;;;16.33;15.33;;;;;14.33;74.55;102111.69;5076191;27;45261;-55
2022/10/03 09:11:29;;;;;;;;;13.67;12.33;;;;;14.40;74.31;102131.84;5074410;28;46813;-60
2022/10/03 09:14:19;;;;;;;;;9.00;9.00;;;;;14.42;74.65;102133.50;5076560;27;45244;-54
2022/10/03 09:17:01;;;;;;;;;24.33;16.33;;;;;14.39;74.16;102149.72;5074948;28;45495;-52
2022/10/03 09:20:09;;;;;;;;;15.00;14.33;;;;;14.42;74.66;102156.72;5075943;27;45278;-53
2022/10/03 09:23:19;;;;;;;;;18.67;12.00;;;;;14.36;74.38;102149.88;5075845;28;45944;-55
2022/10/03 09:26:12;;;;;;;;;18.67;17.00;;;;;14.39;73.73;102152.38;5075925;27;45281;-54
2022/10/03 09:28:45;;;;;;;;;19.67;16.33;;;;;14.45;73.97;102156.59;5076164;28;45176;-60
2022/10/03 09:31:50;;;;;;;;;15.67;15.67;;;;;14.43;74.34;102163.81;5074880;28;45477;-58
2022/10/03 09:34:49;;;;;;;;;17.67;13.33;;;;;14.49;74.69;102160.91;5075951;27;46393;-60
2022/10/03 09:37:39;;;;;;;;;18.00;17.00;;;;;14.50;73.72;102153.72;5076672;27;45340;-63
2022/10/03 09:40:16;;;;;;;;;13.33;13.33;;;;;14.54;73.83;102156.19;5075039;28;45218;-61
2022/10/03 09:43:04;;;;;;;;;20.00;18.33;;;;;14.58;73.48;102155.06;5092538;27;45451;-60
2022/10/03 09:45:41;;;;;;;;;23.33;18.67;;;;;14.64;74.10;102160.16;5075946;27;45369;-55
2022/10/03 09:48:43;;;;;;;;;19.00;15.67;;;;;14.64;74.23;102162.84;5075962;28;45408;-55
2022/10/03 09:51:32;;;;;;;;;22.67;17.00;;;;;14.68;73.28;102150.16;5093123;27;45295;-61
2022/10/03 09:54:12;;;;;;;;;20.00;18.00;;;;;14.74;73.44;102148.06;5076209;28;45463;-57
2022/10/03 09:56:47;;;;;;;;;15.33;15.33;;;;;14.79;73.36;102150.50;5074425;28;47079;-55
2022/10/03 09:59:23;;;;;;;;;25.33;24.33;;;;;14.88;72.66;102149.19;5075602;27;45378;-53
2022/10/03 10:02:21;;;;;;;;;18.67;18.67;;;;;14.89;71.81;102130.38;5092541;27;45545;-51
2022/10/03 10:05:24;;;;;;;;;22.00;19.67;;;;;14.98;71.48;102134.41;5079149;27;45376;-54
2022/10/03 10:07:53;;;;;;;;;19.33;17.00;;;;;14.96;71.31;102125.56;5078542;28;45303;-56
2022/10/03 10:10:57;;;;;;;;;18.67;16.67;;;;;14.96;71.54;102122.88;5077601;28;45270;-55
2022/10/03 10:13:41;;;;;;;;;21.67;19.00;;;;;15.07;72.02;102123.22;5057524;28;45323;-56
2022/10/03 10:16:47;;;;;;;;;19.00;16.00;;;;;15.11;69.98;102130.16;5079541;27;45389;-55
2022/10/03 10:19:37;;;;;;;;;20.00;20.00;;;;;15.20;71.19;102126.13;5078537;27;46271;-56
2022/10/03 10:22:12;;;;;;;;;27.33;26.00;;;;;15.29;70.45;102117.63;5079077;28;45222;-60
2022/10/03 10:24:52;;;;;;;;;20.33;17.67;;;;;15.39;70.49;102129.63;5079427;27;45235;-63
2022/10/03 10:27:36;;;;;;;;;20.00;19.33;;;;;15.48;69.53;102129.13;5078856;27;45421;-62
2022/10/03 10:30:26;;;;;;;;;24.33;19.33;;;;;15.43;69.18;102131.19;5078884;27;46592;-56
2022/10/03 10:33:16;;;;;;;;;19.33;17.00;;;;;15.50;70.10;102135.28;5078874;28;45168;-61
2022/10/03 10:36:26;;;;;;;;;21.00;18.33;;;;;15.56;69.40;102126.06;5079172;27;45331;-58
2022/10/03 10:39:20;;;;;;;;;18.00;18.00;;;;;15.58;69.19;102126.84;5077357;28;45284;-53
2022/10/03 10:42:00;;;;;;;;;24.00;21.33;;;;;15.65;68.86;102125.59;5076886;27;46566;-55
2022/10/03 10:44:44;;;;;;;;;24.00;21.33;;;;;15.71;69.49;102121.72;5078195;27;45492;-60
2022/10/03 10:47:44;;;;;;;;;19.67;19.33;;;;;15.83;68.86;102115.69;5079239;28;45271;-61
2022/10/03 10:50:36;;;;;;;;;23.33;22.33;;;;;15.84;67.94;102101.34;5078865;28;45455;-62
2022/10/03 10:53:16;;;;;;;;;22.67;21.00;;;;;15.87;67.34;102106.53;5078589;28;45414;-54
2022/10/03 10:55:57;;;;;;;;;23.67;18.33;;;;;15.85;68.93;102113.78;5077682;28;45491;-53
2022/10/03 10:58:41;;;;;;;;;36.67;30.00;;;;;15.87;68.08;102110.06;5078750;27;45401;-53
2022/10/03 11:01:38;;;;;;;;;22.00;20.00;;;;;15.81;68.70;102118.47;5078866;28;45405;-59
2022/10/03 11:04:22;;;;;;;;;23.67;21.67;;;;;15.83;68.63;102123.75;5078217;27;46270;-58
2022/10/03 11:07:26;;;;;;;;;19.00;15.00;;;;;15.87;69.04;102119.94;5078558;28;45422;-57
2022/10/03 11:10:03;;;;;;;;;21.33;21.33;;;;;15.91;69.27;102118.84;5077213;28;45369;-58
2022/10/03 11:12:50;;;;;;;;;24.00;22.67;;;;;15.96;69.33;102121.28;5077620;27;45519;-55
2022/10/03 11:15:28;;;;;;;;;19.00;18.00;;;;;16.07;68.72;102126.94;5077977;28;45992;-59
2022/10/03 11:18:24;;;;;;;;;22.33;21.33;;;;;16.12;68.05;102114.97;5077554;27;45204;-65
2022/10/03 11:21:28;;;;;;;;;22.00;19.00;;;;;16.20;67.66;102107.38;5078223;28;45755;-57
2022/10/03 11:24:19;;;;;;;;;13.67;13.67;;;;;16.34;67.10;102111.97;5076472;28;45338;-57
2022/10/03 11:27:06;;;;;;;;;16.33;16.33;;;;;16.43;66.89;102114.16;5077956;28;45400;-58
2022/10/03 11:30:26;;;;;;;;;22.33;19.67;;;;;16.51;65.83;102108.31;5078054;28;45300;-59
2022/10/03 11:33:15;;;;;;;;;18.67;17.33;;;;;16.56;65.81;102113.44;5068947;27;45484;-57
2022/10/03 11:36:04;;;;;;;;;22.67;20.33;;;;;16.59;65.80;102113.28;5078576;28;45349;-59
2022/10/03 11:38:33;;;;;;;;;20.00;17.67;;;;;16.73;65.71;102099.94;5076754;28;48207;-60
2022/10/03 11:41:29;;;;;;;;;22.00;18.67;;;;;16.73;64.82;102089.19;5078075;27;45338;-57
2022/10/03 11:44:18;;;;;;;;;21.33;18.67;;;;;16.80;65.52;102094.13;5076987;28;45424;-62
2022/10/03 11:46:46;;;;;;;;;21.33;19.33;;;;;16.91;64.00;102088.09;5077567;28;45558;-57
2022/10/03 11:49:36;;;;;;;;;17.00;16.33;;;;;16.94;63.53;102085.25;5078368;27;46069;-61
2022/10/03 11:52:04;;;;;;;;;22.00;20.33;;;;;17.01;63.48;102089.31;5076747;28;45358;-60
2022/10/03 11:54:36;;;;;;;;;22.00;18.67;;;;;17.08;64.33;102096.06;5078119;27;45418;-52
2022/10/03 11:57:29;;;;;;;;;21.33;18.67;;;;;17.01;63.35;102093.81;5078010;27;45251;-57
2022/10/03 12:00:18;;;;;;;;;19.67;17.33;;;;;17.08;63.58;102085.31;5077562;27;46113;-58
2022/10/03 12:03:19;;;;;;;;;26.00;25.00;;;;;17.23;63.90;102075.44;5077905;27;45169;-58
2022/10/03 12:08:53;;;;;;;;;19.67;19.67;;;;;17.31;62.27;102085.72;5077971;27;45392;-68
2022/10/03 12:08:53;;;;;;;;;19.00;17.33;;;;;17.26;62.51;102085.16;5077655;28;45500;-60
2022/10/03 12:11:37;;;;;;;;;17.33;16.33;;;;;17.29;62.78;102082.28;5077069;27;46248;-62
2022/10/03 12:14:08;;;;;;;;;21.67;19.67;;;;;17.42;62.96;102088.63;5077070;28;45280;-55
2022/10/03 12:17:14;;;;;;;;;15.33;14.67;;;;;17.38;62.08;102081.72;5076988;28;45454;-57
2022/10/03 12:19:52;;;;;;;;;17.00;14.33;;;;;17.21;62.78;102074.69;5077170;27;45506;-54
2022/10/03 12:22:41;;;;;;;;;14.00;14.00;;;;;17.22;63.38;102070.19;5077392;27;47003;-59
2022/10/03 12:25:29;;;;;;;;;20.33;19.00;;;;;17.44;61.83;102070.56;5092273;27;45451;-57
2022/10/03 12:28:20;;;;;;;;;19.67;14.00;;;;;17.49;61.58;102073.00;5076951;27;45389;-54
2022/10/03 12:30:55;;;;;;;;;15.33;14.00;;;;;17.30;61.28;102057.97;5077783;27;45550;-58
2022/10/03 12:33:58;;;;;;;;;17.00;15.00;;;;;17.24;62.64;102068.25;5092598;27;47611;-59
2022/10/03 12:36:57;;;;;;;;;15.67;15.00;;;;;17.16;61.77;102062.47;5075870;28;45474;-53
2022/10/03 12:40:09;;;;;;;;;16.00;13.00;;;;;17.29;62.39;102056.25;5076942;27;45380;-60
2022/10/03 12:42:46;;;;;;;;;17.67;16.00;;;;;17.35;61.55;102052.34;5076767;27;45276;-63
2022/10/03 12:45:11;;;;;;;;;14.00;13.67;;;;;17.44;61.67;102050.88;5076361;27;46336;-59